sensor_id;sensor_type;location;lat;lon;timestamp;temperature;humidity
3752;DHT22;50827;47.014;7.652;2023-11-21T00:01:06;10.00;99.90
3752;DHT22;50827;47.014;7.652;2023-11-21T00:03:35;10.00;99.90
3752;DHT22;50827;47.014;7.652;2023-11-21T00:06:03;10.10;99.90
3752;DHT22;50827;47.014;7.652;2023-11-21T00:08:33;10.10;99.90
3752;DHT22;50827;47.014;7.652;2023-11-21T00:11:00;10.10;99.90
3752;DHT22;50827;47.014;7.652;2023-11-21T00:13:27;10.10;99.90
3752;DHT22;50827;47.014;7.652;2023-11-21T00:15:54;10.10;99.90
3752;DHT22;50827;47.014;7.652;2023-11-21T00:18:21;10.10;99.90
3752;DHT22;50827;47.014;7.652;2023-11-21T00:20:48;10.10;99.90
3752;DHT22;50827;47.014;7.652;2023-11-21T00:23:14;10.00;99.90
3752;DHT22;50827;47.014;7.652;2023-11-21T00:25:41;10.00;99.90
3752;DHT22;50827;47.014;7.652;2023-11-21T00:28:08;10.00;99.90
3752;DHT22;50827;47.014;7.652;2023-11-21T00:30:34;10.00;99.90
3752;DHT22;50827;47.014;7.652;2023-11-21T00:33:01;10.00;99.90
3752;DHT22;50827;47.014;7.652;2023-11-21T00:35:28;10.00;99.90
3752;DHT22;50827;47.014;7.652;2023-11-21T00:37:55;9.90;99.90
3752;DHT22;50827;47.014;7.652;2023-11-21T00:40:22;9.90;99.90
3752;DHT22;50827;47.014;7.652;2023-11-21T00:42:49;9.90;99.90
3752;DHT22;50827;47.014;7.652;2023-11-21T00:45:16;10.00;99.90
3752;DHT22;50827;47.014;7.652;2023-11-21T00:47:42;9.90;99.90
3752;DHT22;50827;47.014;7.652;2023-11-21T00:50:09;9.90;99.90
3752;DHT22;50827;47.014;7.652;2023-11-21T00:52:37;9.90;99.90
3752;DHT22;50827;47.014;7.652;2023-11-21T00:55:04;9.90;99.90
3752;DHT22;50827;47.014;7.652;2023-11-21T00:57:34;9.90;99.90
3752;DHT22;50827;47.014;7.652;2023-11-21T01:00:01;9.90;99.90
3752;DHT22;50827;47.014;7.652;2023-11-21T01:02:28;9.90;99.90
3752;DHT22;50827;47.014;7.652;2023-11-21T01:04:55;9.80;99.90
3752;DHT22;50827;47.014;7.652;2023-11-21T01:07:22;9.80;99.90
3752;DHT22;50827;47.014;7.652;2023-11-21T01:09:49;9.90;99.90
3752;DHT22;50827;47.014;7.652;2023-11-21T01:12:16;9.80;99.90
3752;DHT22;50827;47.014;7.652;2023-11-21T01:14:44;9.80;99.90
3752;DHT22;50827;47.014;7.652;2023-11-21T01:17:11;9.90;99.90
3752;DHT22;50827;47.014;7.652;2023-11-21T01:19:38;9.90;99.90
3752;DHT22;50827;47.014;7.652;2023-11-21T01:22:05;9.90;99.90
3752;DHT22;50827;47.014;7.652;2023-11-21T01:24:32;9.90;99.90
3752;DHT22;50827;47.014;7.652;2023-11-21T01:26:59;9.90;99.90
3752;DHT22;50827;47.014;7.652;2023-11-21T01:29:26;9.90;99.90
3752;DHT22;50827;47.014;7.652;2023-11-21T01:31:52;9.90;99.90
3752;DHT22;50827;47.014;7.652;2023-11-21T01:34:19;9.90;99.90
3752;DHT22;50827;47.014;7.652;2023-11-21T01:36:46;9.90;99.90
3752;DHT22;50827;47.014;7.652;2023-11-21T01:39:13;9.90;99.90
3752;DHT22;50827;47.014;7.652;2023-11-21T01:41:42;9.90;99.90
3752;DHT22;50827;47.014;7.652;2023-11-21T01:44:10;9.90;99.90
3752;DHT22;50827;47.014;7.652;2023-11-21T01:46:38;9.90;99.90
3752;DHT22;50827;47.014;7.652;2023-11-21T01:49:05;9.90;99.90
3752;DHT22;50827;47.014;7.652;2023-11-21T01:51:33;9.90;99.90
3752;DHT22;50827;47.014;7.652;2023-11-21T01:54:00;9.90;99.90
3752;DHT22;50827;47.014;7.652;2023-11-21T01:56:27;9.90;99.90
3752;DHT22;50827;47.014;7.652;2023-11-21T01:58:54;9.90;99.90
3752;DHT22;50827;47.014;7.652;2023-11-21T02:01:21;9.90;99.90
3752;DHT22;50827;47.014;7.652;2023-11-21T02:03:48;9.90;99.90
3752;DHT22;50827;47.014;7.652;2023-11-21T02:06:14;9.90;99.90
3752;DHT22;50827;47.014;7.652;2023-11-21T02:08:41;9.90;99.90
3752;DHT22;50827;47.014;7.652;2023-11-21T02:11:10;9.90;99.90
3752;DHT22;50827;47.014;7.652;2023-11-21T02:13:39;9.90;99.90
3752;DHT22;50827;47.014;7.652;2023-11-21T02:16:10;10.00;99.90
3752;DHT22;50827;47.014;7.652;2023-11-21T02:18:39;10.00;99.90
3752;DHT22;50827;47.014;7.652;2023-11-21T02:21:07;10.00;99.90
3752;DHT22;50827;47.014;7.652;2023-11-21T02:23:36;10.00;99.90
3752;DHT22;50827;47.014;7.652;2023-11-21T02:26:03;10.00;99.90
3752;DHT22;50827;47.014;7.652;2023-11-21T02:28:31;10.00;99.90
3752;DHT22;50827;47.014;7.652;2023-11-21T02:30:57;10.00;99.90
3752;DHT22;50827;47.014;7.652;2023-11-21T02:33:25;10.00;99.90
3752;DHT22;50827;47.014;7.652;2023-11-21T02:35:52;10.00;99.90
3752;DHT22;50827;47.014;7.652;2023-11-21T02:38:21;10.00;99.90
3752;DHT22;50827;47.014;7.652;2023-11-21T02:40:48;10.00;99.90
3752;DHT22;50827;47.014;7.652;2023-11-21T02:43:16;10.00;99.90
3752;DHT22;50827;47.014;7.652;2023-11-21T02:45:43;10.00;99.90
3752;DHT22;50827;47.014;7.652;2023-11-21T02:48:10;9.90;99.90
3752;DHT22;50827;47.014;7.652;2023-11-21T02:50:36;9.90;99.90
3752;DHT22;50827;47.014;7.652;2023-11-21T02:53:04;9.90;99.90
3752;DHT22;50827;47.014;7.652;2023-11-21T02:55:32;9.90;99.90
3752;DHT22;50827;47.014;7.652;2023-11-21T02:58:02;9.90;99.90
3752;DHT22;50827;47.014;7.652;2023-11-21T03:00:35;9.90;99.90
3752;DHT22;50827;47.014;7.652;2023-11-21T03:03:02;9.90;99.90
3752;DHT22;50827;47.014;7.652;2023-11-21T03:05:30;9.80;99.90
3752;DHT22;50827;47.014;7.652;2023-11-21T03:07:57;9.80;99.90
3752;DHT22;50827;47.014;7.652;2023-11-21T03:10:24;9.70;99.90
3752;DHT22;50827;47.014;7.652;2023-11-21T03:12:51;9.70;99.90
3752;DHT22;50827;47.014;7.652;2023-11-21T03:15:17;9.70;99.90
3752;DHT22;50827;47.014;7.652;2023-11-21T03:17:44;9.60;99.90
3752;DHT22;50827;47.014;7.652;2023-11-21T03:20:11;9.60;99.90
3752;DHT22;50827;47.014;7.652;2023-11-21T03:22:40;9.60;99.90
3752;DHT22;50827;47.014;7.652;2023-11-21T03:25:08;9.60;99.90
3752;DHT22;50827;47.014;7.652;2023-11-21T03:27:38;9.60;99.90
3752;DHT22;50827;47.014;7.652;2023-11-21T03:30:08;9.60;99.90
3752;DHT22;50827;47.014;7.652;2023-11-21T03:32:35;9.60;99.90
3752;DHT22;50827;47.014;7.652;2023-11-21T03:35:02;9.60;99.90
3752;DHT22;50827;47.014;7.652;2023-11-21T03:37:30;9.60;99.90
3752;DHT22;50827;47.014;7.652;2023-11-21T03:39:57;9.60;99.90
3752;DHT22;50827;47.014;7.652;2023-11-21T03:42:24;9.50;99.90
3752;DHT22;50827;47.014;7.652;2023-11-21T03:44:53;9.50;99.90
3752;DHT22;50827;47.014;7.652;2023-11-21T03:47:20;9.50;99.90
3752;DHT22;50827;47.014;7.652;2023-11-21T03:49:47;9.50;99.90
3752;DHT22;50827;47.014;7.652;2023-11-21T03:52:14;9.50;99.90
3752;DHT22;50827;47.014;7.652;2023-11-21T03:54:41;9.50;99.90
3752;DHT22;50827;47.014;7.652;2023-11-21T03:57:07;9.40;99.90
3752;DHT22;50827;47.014;7.652;2023-11-21T03:59:35;9.40;99.90
3752;DHT22;50827;47.014;7.652;2023-11-21T04:02:02;9.40;99.90
3752;DHT22;50827;47.014;7.652;2023-11-21T04:04:29;9.40;99.90
3752;DHT22;50827;47.014;7.652;2023-11-21T04:06:56;9.40;99.90
3752;DHT22;50827;47.014;7.652;2023-11-21T04:09:23;9.40;99.90
3752;DHT22;50827;47.014;7.652;2023-11-21T04:11:52;9.40;99.90
3752;DHT22;50827;47.014;7.652;2023-11-21T04:14:19;9.40;99.90
3752;DHT22;50827;47.014;7.652;2023-11-21T04:16:46;9.30;99.90
3752;DHT22;50827;47.014;7.652;2023-11-21T04:19:13;9.30;99.90
3752;DHT22;50827;47.014;7.652;2023-11-21T04:21:43;9.30;99.90
3752;DHT22;50827;47.014;7.652;2023-11-21T04:24:10;9.20;99.90
3752;DHT22;50827;47.014;7.652;2023-11-21T04:26:37;9.20;99.90
3752;DHT22;50827;47.014;7.652;2023-11-21T04:29:04;9.20;99.90
3752;DHT22;50827;47.014;7.652;2023-11-21T04:31:31;9.20;99.90
3752;DHT22;50827;47.014;7.652;2023-11-21T04:33:58;9.20;99.90
3752;DHT22;50827;47.014;7.652;2023-11-21T04:36:25;9.20;99.90
3752;DHT22;50827;47.014;7.652;2023-11-21T04:38:52;9.10;99.90
3752;DHT22;50827;47.014;7.652;2023-11-21T04:41:18;9.10;99.90
3752;DHT22;50827;47.014;7.652;2023-11-21T04:43:45;9.10;99.90
3752;DHT22;50827;47.014;7.652;2023-11-21T04:46:12;9.10;99.90
3752;DHT22;50827;47.014;7.652;2023-11-21T04:48:38;9.10;99.90
3752;DHT22;50827;47.014;7.652;2023-11-21T04:51:05;9.10;99.90
3752;DHT22;50827;47.014;7.652;2023-11-21T04:53:32;9.10;99.90
3752;DHT22;50827;47.014;7.652;2023-11-21T04:55:59;9.00;99.90
3752;DHT22;50827;47.014;7.652;2023-11-21T04:58:25;9.10;99.90
3752;DHT22;50827;47.014;7.652;2023-11-21T05:00:52;9.10;99.90
3752;DHT22;50827;47.014;7.652;2023-11-21T05:03:19;9.10;99.90
3752;DHT22;50827;47.014;7.652;2023-11-21T05:05:46;9.00;99.90
3752;DHT22;50827;47.014;7.652;2023-11-21T05:08:12;9.00;99.90
3752;DHT22;50827;47.014;7.652;2023-11-21T05:10:39;9.00;99.90
3752;DHT22;50827;47.014;7.652;2023-11-21T05:13:06;9.00;99.90
3752;DHT22;50827;47.014;7.652;2023-11-21T05:15:37;9.00;99.90
3752;DHT22;50827;47.014;7.652;2023-11-21T05:18:05;9.00;99.90
3752;DHT22;50827;47.014;7.652;2023-11-21T05:20:33;8.90;99.90
3752;DHT22;50827;47.014;7.652;2023-11-21T05:22:59;8.90;99.90
3752;DHT22;50827;47.014;7.652;2023-11-21T05:25:26;8.90;99.90
3752;DHT22;50827;47.014;7.652;2023-11-21T05:27:53;8.90;99.90
3752;DHT22;50827;47.014;7.652;2023-11-21T05:30:21;8.90;99.90
3752;DHT22;50827;47.014;7.652;2023-11-21T05:32:48;8.90;99.90
3752;DHT22;50827;47.014;7.652;2023-11-21T05:35:16;8.90;99.90
3752;DHT22;50827;47.014;7.652;2023-11-21T05:37:45;8.90;99.90
3752;DHT22;50827;47.014;7.652;2023-11-21T05:40:12;8.90;99.90
3752;DHT22;50827;47.014;7.652;2023-11-21T05:42:40;8.90;99.90
3752;DHT22;50827;47.014;7.652;2023-11-21T05:45:08;8.90;99.90
3752;DHT22;50827;47.014;7.652;2023-11-21T05:47:41;9.00;99.90
3752;DHT22;50827;47.014;7.652;2023-11-21T05:50:09;9.00;99.90
3752;DHT22;50827;47.014;7.652;2023-11-21T05:52:42;9.00;99.90
3752;DHT22;50827;47.014;7.652;2023-11-21T05:55:09;8.90;99.90
3752;DHT22;50827;47.014;7.652;2023-11-21T05:57:38;8.90;99.90
3752;DHT22;50827;47.014;7.652;2023-11-21T06:00:09;8.90;99.90
3752;DHT22;50827;47.014;7.652;2023-11-21T06:02:42;8.90;99.90
3752;DHT22;50827;47.014;7.652;2023-11-21T06:05:09;9.00;99.90
3752;DHT22;50827;47.014;7.652;2023-11-21T06:07:37;9.00;99.90
3752;DHT22;50827;47.014;7.652;2023-11-21T06:10:05;9.00;99.90
3752;DHT22;50827;47.014;7.652;2023-11-21T06:12:35;9.00;99.90
3752;DHT22;50827;47.014;7.652;2023-11-21T06:15:03;9.00;99.90
3752;DHT22;50827;47.014;7.652;2023-11-21T06:17:31;9.00;99.90
3752;DHT22;50827;47.014;7.652;2023-11-21T06:19:58;8.90;99.90
3752;DHT22;50827;47.014;7.652;2023-11-21T06:22:25;8.90;99.90
3752;DHT22;50827;47.014;7.652;2023-11-21T06:24:52;8.90;99.90
3752;DHT22;50827;47.014;7.652;2023-11-21T06:27:19;8.90;99.90
3752;DHT22;50827;47.014;7.652;2023-11-21T06:29:46;8.80;99.90
3752;DHT22;50827;47.014;7.652;2023-11-21T06:32:13;8.90;99.90
3752;DHT22;50827;47.014;7.652;2023-11-21T06:34:43;8.90;99.90
3752;DHT22;50827;47.014;7.652;2023-11-21T06:37:10;8.90;99.90
3752;DHT22;50827;47.014;7.652;2023-11-21T06:39:37;8.90;99.90
3752;DHT22;50827;47.014;7.652;2023-11-21T06:42:05;8.80;99.90
3752;DHT22;50827;47.014;7.652;2023-11-21T06:44:32;8.90;99.90
3752;DHT22;50827;47.014;7.652;2023-11-21T06:47:00;8.90;99.90
3752;DHT22;50827;47.014;7.652;2023-11-21T06:49:27;8.80;99.90
3752;DHT22;50827;47.014;7.652;2023-11-21T06:51:54;8.80;99.90
3752;DHT22;50827;47.014;7.652;2023-11-21T06:54:22;8.90;99.90
3752;DHT22;50827;47.014;7.652;2023-11-21T06:56:49;8.90;99.90
3752;DHT22;50827;47.014;7.652;2023-11-21T06:59:16;8.90;99.90
3752;DHT22;50827;47.014;7.652;2023-11-21T07:01:42;8.90;99.90
3752;DHT22;50827;47.014;7.652;2023-11-21T07:04:09;9.00;99.90
3752;DHT22;50827;47.014;7.652;2023-11-21T07:06:36;9.00;99.90
3752;DHT22;50827;47.014;7.652;2023-11-21T07:09:04;9.00;99.90
3752;DHT22;50827;47.014;7.652;2023-11-21T07:11:31;9.00;99.90
3752;DHT22;50827;47.014;7.652;2023-11-21T07:13:57;9.00;99.90
3752;DHT22;50827;47.014;7.652;2023-11-21T07:16:24;9.00;99.90
3752;DHT22;50827;47.014;7.652;2023-11-21T07:18:51;8.90;99.90
3752;DHT22;50827;47.014;7.652;2023-11-21T07:21:18;8.90;99.90
3752;DHT22;50827;47.014;7.652;2023-11-21T07:23:47;8.80;99.90
3752;DHT22;50827;47.014;7.652;2023-11-21T07:26:14;8.80;99.90
3752;DHT22;50827;47.014;7.652;2023-11-21T07:28:40;8.80;99.90
3752;DHT22;50827;47.014;7.652;2023-11-21T07:31:07;8.70;99.90
3752;DHT22;50827;47.014;7.652;2023-11-21T07:33:34;8.70;99.90
3752;DHT22;50827;47.014;7.652;2023-11-21T07:36:01;8.70;99.90
3752;DHT22;50827;47.014;7.652;2023-11-21T07:38:27;8.70;99.90
3752;DHT22;50827;47.014;7.652;2023-11-21T07:40:55;8.70;99.90
3752;DHT22;50827;47.014;7.652;2023-11-21T07:43:21;8.90;99.90
3752;DHT22;50827;47.014;7.652;2023-11-21T07:45:48;8.90;99.90
3752;DHT22;50827;47.014;7.652;2023-11-21T07:48:15;8.80;99.90
3752;DHT22;50827;47.014;7.652;2023-11-21T07:50:42;8.80;99.90
3752;DHT22;50827;47.014;7.652;2023-11-21T07:53:09;8.80;99.90
3752;DHT22;50827;47.014;7.652;2023-11-21T07:55:36;8.80;99.90
3752;DHT22;50827;47.014;7.652;2023-11-21T07:58:03;8.90;99.90
3752;DHT22;50827;47.014;7.652;2023-11-21T08:00:30;8.90;99.90
3752;DHT22;50827;47.014;7.652;2023-11-21T08:02:57;8.90;99.90
3752;DHT22;50827;47.014;7.652;2023-11-21T08:05:24;8.90;99.90
3752;DHT22;50827;47.014;7.652;2023-11-21T08:08:02;8.90;99.90
3752;DHT22;50827;47.014;7.652;2023-11-21T08:10:29;8.90;99.90
3752;DHT22;50827;47.014;7.652;2023-11-21T08:12:56;8.90;99.90
3752;DHT22;50827;47.014;7.652;2023-11-21T08:15:23;8.90;99.90
3752;DHT22;50827;47.014;7.652;2023-11-21T08:17:50;8.90;99.90
3752;DHT22;50827;47.014;7.652;2023-11-21T08:20:17;8.90;99.90
3752;DHT22;50827;47.014;7.652;2023-11-21T08:22:45;8.90;99.90
3752;DHT22;50827;47.014;7.652;2023-11-21T08:25:14;8.90;99.90
3752;DHT22;50827;47.014;7.652;2023-11-21T08:27:41;8.90;99.90
3752;DHT22;50827;47.014;7.652;2023-11-21T08:30:08;9.00;99.90
3752;DHT22;50827;47.014;7.652;2023-11-21T08:32:35;8.90;99.90
3752;DHT22;50827;47.014;7.652;2023-11-21T08:35:02;8.90;99.90
3752;DHT22;50827;47.014;7.652;2023-11-21T08:37:29;9.00;99.90
3752;DHT22;50827;47.014;7.652;2023-11-21T08:39:58;9.00;99.90
3752;DHT22;50827;47.014;7.652;2023-11-21T08:42:26;9.00;99.90
3752;DHT22;50827;47.014;7.652;2023-11-21T08:44:56;9.10;99.90
3752;DHT22;50827;47.014;7.652;2023-11-21T08:47:24;9.10;99.90
3752;DHT22;50827;47.014;7.652;2023-11-21T08:49:51;9.10;99.90
3752;DHT22;50827;47.014;7.652;2023-11-21T08:52:21;9.10;99.90
3752;DHT22;50827;47.014;7.652;2023-11-21T08:54:51;9.10;99.90
3752;DHT22;50827;47.014;7.652;2023-11-21T08:57:23;9.10;99.90
3752;DHT22;50827;47.014;7.652;2023-11-21T08:59:49;9.10;99.90
3752;DHT22;50827;47.014;7.652;2023-11-21T09:02:22;9.20;99.90
3752;DHT22;50827;47.014;7.652;2023-11-21T09:04:50;9.10;99.90
3752;DHT22;50827;47.014;7.652;2023-11-21T09:07:19;9.20;99.90
3752;DHT22;50827;47.014;7.652;2023-11-21T09:09:47;9.20;99.90
3752;DHT22;50827;47.014;7.652;2023-11-21T09:12:15;9.20;99.90
3752;DHT22;50827;47.014;7.652;2023-11-21T09:14:43;9.30;99.90
3752;DHT22;50827;47.014;7.652;2023-11-21T09:17:10;9.30;99.90
3752;DHT22;50827;47.014;7.652;2023-11-21T09:19:38;9.30;99.90
3752;DHT22;50827;47.014;7.652;2023-11-21T09:22:05;9.30;99.90
3752;DHT22;50827;47.014;7.652;2023-11-21T09:24:33;9.40;99.90
3752;DHT22;50827;47.014;7.652;2023-11-21T09:27:00;9.30;99.90
3752;DHT22;50827;47.014;7.652;2023-11-21T09:29:27;9.40;99.90
3752;DHT22;50827;47.014;7.652;2023-11-21T09:31:55;9.50;99.90
3752;DHT22;50827;47.014;7.652;2023-11-21T09:34:25;9.50;99.90
3752;DHT22;50827;47.014;7.652;2023-11-21T09:36:52;9.60;99.90
3752;DHT22;50827;47.014;7.652;2023-11-21T09:39:20;9.60;99.90
3752;DHT22;50827;47.014;7.652;2023-11-21T09:41:56;9.50;99.90
3752;DHT22;50827;47.014;7.652;2023-11-21T09:44:35;9.60;99.90
3752;DHT22;50827;47.014;7.652;2023-11-21T09:47:03;9.60;99.90
3752;DHT22;50827;47.014;7.652;2023-11-21T09:49:32;9.60;99.90
3752;DHT22;50827;47.014;7.652;2023-11-21T09:52:01;9.60;99.90
3752;DHT22;50827;47.014;7.652;2023-11-21T09:54:31;9.60;99.90
3752;DHT22;50827;47.014;7.652;2023-11-21T09:56:59;9.60;99.90
3752;DHT22;50827;47.014;7.652;2023-11-21T09:59:30;9.60;99.90
3752;DHT22;50827;47.014;7.652;2023-11-21T10:01:58;9.60;99.90
3752;DHT22;50827;47.014;7.652;2023-11-21T10:04:27;9.60;99.90
3752;DHT22;50827;47.014;7.652;2023-11-21T10:06:55;9.60;99.90
3752;DHT22;50827;47.014;7.652;2023-11-21T10:09:23;9.60;99.90
3752;DHT22;50827;47.014;7.652;2023-11-21T10:11:51;9.60;99.90
3752;DHT22;50827;47.014;7.652;2023-11-21T10:14:19;9.60;99.90
3752;DHT22;50827;47.014;7.652;2023-11-21T10:16:52;9.60;99.90
3752;DHT22;50827;47.014;7.652;2023-11-21T10:19:21;9.60;99.90
3752;DHT22;50827;47.014;7.652;2023-11-21T10:21:49;9.70;99.90
3752;DHT22;50827;47.014;7.652;2023-11-21T10:24:15;9.70;99.90
3752;DHT22;50827;47.014;7.652;2023-11-21T10:26:43;9.70;99.90
3752;DHT22;50827;47.014;7.652;2023-11-21T10:29:19;9.70;99.90
3752;DHT22;50827;47.014;7.652;2023-11-21T10:31:51;9.70;99.90
3752;DHT22;50827;47.014;7.652;2023-11-21T10:34:21;9.70;99.90
3752;DHT22;50827;47.014;7.652;2023-11-21T10:36:48;9.80;99.90
3752;DHT22;50827;47.014;7.652;2023-11-21T10:39:19;9.80;99.90
3752;DHT22;50827;47.014;7.652;2023-11-21T10:41:47;9.80;99.90
3752;DHT22;50827;47.014;7.652;2023-11-21T10:44:15;9.90;99.90
3752;DHT22;50827;47.014;7.652;2023-11-21T10:46:52;10.00;99.90
3752;DHT22;50827;47.014;7.652;2023-11-21T10:49:26;9.90;99.90
3752;DHT22;50827;47.014;7.652;2023-11-21T10:51:54;10.00;99.90
3752;DHT22;50827;47.014;7.652;2023-11-21T10:54:22;10.00;99.90
3752;DHT22;50827;47.014;7.652;2023-11-21T10:56:50;10.10;99.90
3752;DHT22;50827;47.014;7.652;2023-11-21T10:59:19;10.20;99.90
3752;DHT22;50827;47.014;7.652;2023-11-21T11:01:47;10.20;99.90
3752;DHT22;50827;47.014;7.652;2023-11-21T11:04:19;10.20;99.90
3752;DHT22;50827;47.014;7.652;2023-11-21T11:06:51;10.20;99.90
3752;DHT22;50827;47.014;7.652;2023-11-21T11:09:19;10.20;99.90
3752;DHT22;50827;47.014;7.652;2023-11-21T11:11:46;10.20;99.90
3752;DHT22;50827;47.014;7.652;2023-11-21T11:14:14;10.20;99.90
3752;DHT22;50827;47.014;7.652;2023-11-21T11:16:41;10.20;99.90
3752;DHT22;50827;47.014;7.652;2023-11-21T11:19:10;10.30;99.90
3752;DHT22;50827;47.014;7.652;2023-11-21T11:24:17;10.30;99.90
3752;DHT22;50827;47.014;7.652;2023-11-21T11:26:57;10.40;99.90
3752;DHT22;50827;47.014;7.652;2023-11-21T11:32:16;10.50;99.90
3752;DHT22;50827;47.014;7.652;2023-11-21T11:35:17;10.50;99.90
3752;DHT22;50827;47.014;7.652;2023-11-21T11:37:46;10.60;99.90
3752;DHT22;50827;47.014;7.652;2023-11-21T11:40:13;10.60;99.90
3752;DHT22;50827;47.014;7.652;2023-11-21T11:42:56;10.60;99.90
3752;DHT22;50827;47.014;7.652;2023-11-21T11:45:32;10.60;99.90
3752;DHT22;50827;47.014;7.652;2023-11-21T11:48:00;10.60;99.90
3752;DHT22;50827;47.014;7.652;2023-11-21T11:50:28;10.70;99.90
3752;DHT22;50827;47.014;7.652;2023-11-21T11:52:55;10.60;99.90
3752;DHT22;50827;47.014;7.652;2023-11-21T11:55:24;10.60;99.90
3752;DHT22;50827;47.014;7.652;2023-11-21T11:57:51;10.70;99.90
3752;DHT22;50827;47.014;7.652;2023-11-21T12:02:55;10.60;99.90
3752;DHT22;50827;47.014;7.652;2023-11-21T12:05:23;10.60;99.90
3752;DHT22;50827;47.014;7.652;2023-11-21T12:07:51;10.60;99.90
3752;DHT22;50827;47.014;7.652;2023-11-21T12:10:29;10.60;99.90
3752;DHT22;50827;47.014;7.652;2023-11-21T12:12:58;10.60;99.90
3752;DHT22;50827;47.014;7.652;2023-11-21T12:15:25;10.60;99.90
3752;DHT22;50827;47.014;7.652;2023-11-21T12:17:52;10.70;99.90
3752;DHT22;50827;47.014;7.652;2023-11-21T12:20:21;10.70;99.90
3752;DHT22;50827;47.014;7.652;2023-11-21T12:22:52;10.70;99.90
3752;DHT22;50827;47.014;7.652;2023-11-21T12:25:24;10.70;99.90
3752;DHT22;50827;47.014;7.652;2023-11-21T12:27:52;10.70;99.90
3752;DHT22;50827;47.014;7.652;2023-11-21T12:30:23;10.70;99.90
3752;DHT22;50827;47.014;7.652;2023-11-21T12:32:54;10.70;99.90
3752;DHT22;50827;47.014;7.652;2023-11-21T12:35:24;10.70;99.90
3752;DHT22;50827;47.014;7.652;2023-11-21T12:37:52;10.70;99.90
3752;DHT22;50827;47.014;7.652;2023-11-21T12:40:20;10.70;99.90
3752;DHT22;50827;47.014;7.652;2023-11-21T12:42:54;10.70;99.90
3752;DHT22;50827;47.014;7.652;2023-11-21T12:45:25;10.80;99.90
3752;DHT22;50827;47.014;7.652;2023-11-21T12:48:00;10.80;99.90
3752;DHT22;50827;47.014;7.652;2023-11-21T12:50:30;10.80;99.90
3752;DHT22;50827;47.014;7.652;2023-11-21T12:53:06;10.80;99.90
3752;DHT22;50827;47.014;7.652;2023-11-21T12:55:36;10.80;99.90
3752;DHT22;50827;47.014;7.652;2023-11-21T12:58:09;10.80;99.90
3752;DHT22;50827;47.014;7.652;2023-11-21T13:00:39;10.80;99.90
3752;DHT22;50827;47.014;7.652;2023-11-21T13:03:09;10.80;99.90
3752;DHT22;50827;47.014;7.652;2023-11-21T13:05:40;10.80;99.90
3752;DHT22;50827;47.014;7.652;2023-11-21T13:08:15;10.80;99.90
3752;DHT22;50827;47.014;7.652;2023-11-21T13:10:46;10.80;99.90
3752;DHT22;50827;47.014;7.652;2023-11-21T13:13:15;10.80;99.90
3752;DHT22;50827;47.014;7.652;2023-11-21T13:15:55;10.70;99.90
3752;DHT22;50827;47.014;7.652;2023-11-21T13:18:24;10.80;99.90
3752;DHT22;50827;47.014;7.652;2023-11-21T13:20:54;10.80;99.90
3752;DHT22;50827;47.014;7.652;2023-11-21T13:23:22;10.80;99.90
3752;DHT22;50827;47.014;7.652;2023-11-21T13:25:50;10.80;99.90
3752;DHT22;50827;47.014;7.652;2023-11-21T13:28:28;10.80;99.90
3752;DHT22;50827;47.014;7.652;2023-11-21T13:31:00;10.80;99.90
3752;DHT22;50827;47.014;7.652;2023-11-21T13:33:36;10.80;99.90
3752;DHT22;50827;47.014;7.652;2023-11-21T13:36:09;10.80;99.90
3752;DHT22;50827;47.014;7.652;2023-11-21T13:38:37;10.80;99.90
3752;DHT22;50827;47.014;7.652;2023-11-21T13:41:09;10.80;99.90
3752;DHT22;50827;47.014;7.652;2023-11-21T13:43:36;10.80;99.90
3752;DHT22;50827;47.014;7.652;2023-11-21T13:46:04;10.90;99.90
3752;DHT22;50827;47.014;7.652;2023-11-21T13:48:40;10.90;99.90
3752;DHT22;50827;47.014;7.652;2023-11-21T13:51:17;11.00;99.90
3752;DHT22;50827;47.014;7.652;2023-11-21T13:53:45;10.90;99.90
3752;DHT22;50827;47.014;7.652;2023-11-21T13:56:15;10.90;99.90
3752;DHT22;50827;47.014;7.652;2023-11-21T13:58:50;11.00;99.90
3752;DHT22;50827;47.014;7.652;2023-11-21T14:01:19;11.00;99.90
3752;DHT22;50827;47.014;7.652;2023-11-21T14:03:59;11.10;99.90
3752;DHT22;50827;47.014;7.652;2023-11-21T14:06:35;11.00;99.90
3752;DHT22;50827;47.014;7.652;2023-11-21T14:09:12;11.00;99.90
3752;DHT22;50827;47.014;7.652;2023-11-21T14:11:44;11.00;99.90
3752;DHT22;50827;47.014;7.652;2023-11-21T14:14:14;10.90;99.90
3752;DHT22;50827;47.014;7.652;2023-11-21T14:16:41;10.90;99.90
3752;DHT22;50827;47.014;7.652;2023-11-21T14:19:09;10.90;99.90
3752;DHT22;50827;47.014;7.652;2023-11-21T14:21:45;10.90;99.90
3752;DHT22;50827;47.014;7.652;2023-11-21T14:24:13;10.90;99.90
3752;DHT22;50827;47.014;7.652;2023-11-21T14:26:41;10.80;99.90
3752;DHT22;50827;47.014;7.652;2023-11-21T14:29:09;10.80;99.90
3752;DHT22;50827;47.014;7.652;2023-11-21T14:31:39;10.80;99.90
3752;DHT22;50827;47.014;7.652;2023-11-21T14:34:07;10.80;99.90
3752;DHT22;50827;47.014;7.652;2023-11-21T14:36:34;10.70;99.90
3752;DHT22;50827;47.014;7.652;2023-11-21T14:39:03;10.70;99.90
3752;DHT22;50827;47.014;7.652;2023-11-21T14:41:33;10.80;99.90
3752;DHT22;50827;47.014;7.652;2023-11-21T14:44:02;10.70;99.90
3752;DHT22;50827;47.014;7.652;2023-11-21T14:46:30;10.70;99.90
3752;DHT22;50827;47.014;7.652;2023-11-21T14:48:57;10.80;99.90
3752;DHT22;50827;47.014;7.652;2023-11-21T14:51:49;10.80;99.90
3752;DHT22;50827;47.014;7.652;2023-11-21T14:54:47;10.80;99.90
3752;DHT22;50827;47.014;7.652;2023-11-21T14:57:23;10.70;99.90
3752;DHT22;50827;47.014;7.652;2023-11-21T14:59:50;10.80;99.90
3752;DHT22;50827;47.014;7.652;2023-11-21T15:02:19;10.80;99.90
3752;DHT22;50827;47.014;7.652;2023-11-21T15:05:10;10.70;99.90
3752;DHT22;50827;47.014;7.652;2023-11-21T15:07:45;10.80;99.90
3752;DHT22;50827;47.014;7.652;2023-11-21T15:10:12;10.70;99.90
3752;DHT22;50827;47.014;7.652;2023-11-21T15:12:42;10.70;99.90
3752;DHT22;50827;47.014;7.652;2023-11-21T15:15:11;10.80;99.90
3752;DHT22;50827;47.014;7.652;2023-11-21T15:17:38;10.70;99.90
3752;DHT22;50827;47.014;7.652;2023-11-21T15:20:07;10.70;99.90
3752;DHT22;50827;47.014;7.652;2023-11-21T15:22:35;10.60;99.90
3752;DHT22;50827;47.014;7.652;2023-11-21T15:25:04;10.70;99.90
3752;DHT22;50827;47.014;7.652;2023-11-21T15:27:37;10.60;99.90
3752;DHT22;50827;47.014;7.652;2023-11-21T15:30:04;10.60;99.90
3752;DHT22;50827;47.014;7.652;2023-11-21T15:32:31;10.60;99.90
3752;DHT22;50827;47.014;7.652;2023-11-21T15:34:58;10.60;99.90
3752;DHT22;50827;47.014;7.652;2023-11-21T15:37:25;10.60;99.90
3752;DHT22;50827;47.014;7.652;2023-11-21T15:39:54;10.60;99.90
3752;DHT22;50827;47.014;7.652;2023-11-21T15:42:21;10.60;99.90
3752;DHT22;50827;47.014;7.652;2023-11-21T15:44:47;10.60;99.90
3752;DHT22;50827;47.014;7.652;2023-11-21T15:47:14;10.60;99.90
3752;DHT22;50827;47.014;7.652;2023-11-21T15:49:41;10.60;99.90
3752;DHT22;50827;47.014;7.652;2023-11-21T15:52:08;10.60;99.90
3752;DHT22;50827;47.014;7.652;2023-11-21T15:54:37;10.60;99.90
3752;DHT22;50827;47.014;7.652;2023-11-21T15:57:04;10.50;99.90
3752;DHT22;50827;47.014;7.652;2023-11-21T15:59:33;10.50;99.90
3752;DHT22;50827;47.014;7.652;2023-11-21T16:02:01;10.50;99.90
3752;DHT22;50827;47.014;7.652;2023-11-21T16:04:32;10.50;99.90
3752;DHT22;50827;47.014;7.652;2023-11-21T16:06:59;10.50;99.90
3752;DHT22;50827;47.014;7.652;2023-11-21T16:09:26;10.50;99.90
3752;DHT22;50827;47.014;7.652;2023-11-21T16:12:01;10.50;99.90